Three Lakes, WI

2:36 AM CDT on June 26, 2017 (GMT -0500)
Downtown Three Lakes | | Change Station

Elev 1658 ft 45.80 °N, 89.18 °W | Updated 1 minute ago

Overcast
Overcast
46.0 °F
Feels Like 46 °F
N
0.0
Wind Variable Wind from NW
Gusts 0.0 mph

Today
High -- | Low -- °F
--% Chance of Precip.
Yesterday
High -- | Low -- °F
Precip. -- in
Pressure 30.00 in
Visibility 7.0 miles
Clouds Scattered Clouds 1200 ft
Mostly Cloudy 2300 ft
Overcast 3000 ft
Windchill 46 °F
Dew Point 44 °F
Humidity 91%
Rainfall Not available.
Snow Depth Not available.
5:08 AM 8:50 PM
Waxing Crescent, 7% visible
METAR KEGV 260715Z AUTO 30007KT 7SM SCT012 BKN023 OVC030 09/08 A3000 RMK AO2 T00850080
Pressure 30.00 in
Visibility 7.0 miles
Clouds Scattered Clouds 1200 ft
Mostly Cloudy 2300 ft
Overcast 3000 ft
Windchill 46 °F
Dew Point 44 °F
Humidity 91%
Rainfall Not available.
Snow Depth Not available.
5:08 AM 8:50 PM
Waxing Crescent, 7% visible
METAR KEGV 260715Z AUTO 30007KT 7SM SCT012 BKN023 OVC030 09/08 A3000 RMK AO2 T00850080

Get Severe Weather Alerts

Thanks for signing up!

Be on the lookout for a verification email in your inbox.

You'll start receiving the daily forecast at 6 AM.

×

10-Day Weather Forecast

Almanac

Astronomy

Jun. 26, 2017 Rise Set
Actual Time
Civil Twilight
Nautical Twilight
Astronomical Twilight
Moon
Length of Visible Light
Length of Day
Tomorrow will be .
, % of the Moon is Illuminated

Today's Extremes

State Highs State Lows

Community

WunderPhotos

Category 6

Welcome to Category 6. This is the collective home for Weather Underground's featured writeups by Dr. Jeff Masters (right), Bob Henson (left), Chris Burt, and other regular contributors.

Nearby

Air Quality

  Air Quality AQ Index Pollutant
Not available.

Snow Depth

Station Depth Elevation

Earthquake Activity

City Distance Mag. Time & Date
Minimum magnitude displayed is 2.5.

Coastal Water Temperatures

Place Temperature

Stations

Nearby Weather Stations

Station Location Temp. Windchill Dew Point Humidity Wind Precip. Elev Updated Type
                   

Watches & Warnings

There are currently no watches in effect.